Ellenville, New York
Current Conditions -  °F | °C
As of 2:54 AM on Saturday 01 Nov 2014 (Local Time) from KMGJ Reporting Station
Overcast Overcast  
Wind Chill: 40°   Ceiling: 4000
Heat Index: 45°   Visibility: 10mi
Dew Point: 39°   Wind: 10mph
Humidity: 80%   Direction: 30°NNE
Pressure: 29.88"   Gusts: NA
Location:  41.72°N, 74.4°W
Report Text: KMGJ 010654Z AUTO 03009KT 10SM OVC040 07/04 A2988 RMK AO2 RAB02E42 SLP120 P0001 T00720039 TSNO
Loading
Personal Weather Stations






























Interactive Weather Map
Tropical Storm Tracking
New forecast layout! Learn more

10-Day Weather Forecast

Advertisements
Track Severe Weather on mobile